sensor_id;sensor_type;location;lat;lon;timestamp;pressure;altitude;pressure_sealevel;temperature;humidity
31088;BME280;17745;55.914;37.554;2023-08-01T05:04:44;98645.78;;;26.25;47.31
31088;BME280;17745;55.914;37.554;2023-08-01T05:07:35;98632.47;;;26.16;47.18
31088;BME280;17745;55.914;37.554;2023-08-01T05:13:59;98642.63;;;26.19;47.15
31088;BME280;17745;55.914;37.554;2023-08-01T05:17:09;98645.47;;;26.34;46.98
31088;BME280;17745;55.914;37.554;2023-08-01T05:19:51;98639.34;;;26.40;46.96
31088;BME280;17745;55.914;37.554;2023-08-01T05:22:50;98645.22;;;26.46;46.59
31088;BME280;17745;55.914;37.554;2023-08-01T05:25:48;98648.03;;;26.61;46.55
31088;BME280;17745;55.914;37.554;2023-08-01T05:28:21;98647.78;;;26.73;46.55
31088;BME280;17745;55.914;37.554;2023-08-01T05:31:03;98651.69;;;26.76;46.15
31088;BME280;17745;55.914;37.554;2023-08-01T05:37:17;98648.56;;;26.77;45.51
31088;BME280;17745;55.914;37.554;2023-08-01T05:40:10;98656.31;;;26.75;45.32
31088;BME280;17745;55.914;37.554;2023-08-01T05:42:47;98651.69;;;26.76;45.19
31088;BME280;17745;55.914;37.554;2023-08-01T05:45:23;98653.28;;;26.84;45.14
31088;BME280;17745;55.914;37.554;2023-08-01T05:48:01;98650.66;;;26.91;44.68
31088;BME280;17745;55.914;37.554;2023-08-01T05:50:34;98653.03;;;27.00;44.58
31088;BME280;17745;55.914;37.554;2023-08-01T05:53:22;98652.72;;;27.05;44.58
31088;BME280;17745;55.914;37.554;2023-08-01T05:55:54;98652.75;;;27.13;44.25
31088;BME280;17745;55.914;37.554;2023-08-01T05:58:28;98657.88;;;27.25;44.35
31088;BME280;17745;55.914;37.554;2023-08-01T06:00:59;98656.03;;;27.44;44.08
31088;BME280;17745;55.914;37.554;2023-08-01T06:03:34;98658.87;;;27.58;43.73
31088;BME280;17745;55.914;37.554;2023-08-01T06:06:12;98660.47;;;27.66;43.60
31088;BME280;17745;55.914;37.554;2023-08-01T06:09:09;98655.81;;;27.74;43.24
31088;BME280;17745;55.914;37.554;2023-08-01T06:11:46;98658.59;;;27.85;42.76
31088;BME280;17745;55.914;37.554;2023-08-01T06:14:18;98650.84;;;27.87;42.73
31088;BME280;17745;55.914;37.554;2023-08-01T06:17:00;98666.84;;;28.07;42.54
31088;BME280;17745;55.914;37.554;2023-08-01T06:19:31;98663.03;;;28.26;41.98
31088;BME280;17745;55.914;37.554;2023-08-01T06:22:03;98668.50;;;28.41;41.66
31088;BME280;17745;55.914;37.554;2023-08-01T06:25:14;98670.44;;;28.44;41.44
31088;BME280;17745;55.914;37.554;2023-08-01T06:27:46;98668.91;;;28.50;40.55
31088;BME280;17745;55.914;37.554;2023-08-01T06:30:17;98662.28;;;28.54;40.60
31088;BME280;17745;55.914;37.554;2023-08-01T06:32:49;98667.37;;;28.74;40.20
31088;BME280;17745;55.914;37.554;2023-08-01T06:35:37;98663.50;;;28.97;39.76
31088;BME280;17745;55.914;37.554;2023-08-01T06:38:13;98664.63;;;29.25;39.63
31088;BME280;17745;55.914;37.554;2023-08-01T06:41:05;98664.25;;;29.41;39.33
31088;BME280;17745;55.914;37.554;2023-08-01T06:44:03;98664.59;;;29.47;38.64
31088;BME280;17745;55.914;37.554;2023-08-01T06:46:43;98661.03;;;29.64;38.81
31088;BME280;17745;55.914;37.554;2023-08-01T06:49:17;98664.94;;;29.71;38.31
31088;BME280;17745;55.914;37.554;2023-08-01T06:51:48;98662.97;;;29.71;38.38
31088;BME280;17745;55.914;37.554;2023-08-01T06:54:24;98661.75;;;29.79;38.10
31088;BME280;17745;55.914;37.554;2023-08-01T06:57:06;98657.84;;;29.84;37.73
31088;BME280;17745;55.914;37.554;2023-08-01T06:59:39;98663.34;;;29.80;37.50
31088;BME280;17745;55.914;37.554;2023-08-01T17:33:39;98589.41;;;27.72;40.75
31088;BME280;17745;55.914;37.554;2023-08-01T17:40:53;98589.34;;;27.64;40.97
31088;BME280;17745;55.914;37.554;2023-08-01T17:44:04;98597.53;;;27.61;41.04
31088;BME280;17745;55.914;37.554;2023-08-01T17:47:29;98600.16;;;27.50;41.46
31088;BME280;17745;55.914;37.554;2023-08-01T20:04:38;98635.78;;;25.37;46.64
